Time;durP1;ratioP1;P1;durP2;ratioP2;P2;SDS_P1;SDS_P2;PMS_P1;PMS_P2;Temp;Humidity;BMP_temperature;BMP_pressure;BME280_temperature;BME280_humidity;BME280_pressure;Samples;Min_cycle;Max_cycle;Signal;HPM_P1;HPM_P2
2022/04/28 00:01:41;;;;;;;13.50;2.20;;;7.90;99.90;;;;;;5089865;28;20020;-27
2022/04/28 00:04:06;;;;;;;6.35;2.38;;;7.80;99.90;;;;;;5091489;28;20032;-26
2022/04/28 00:06:32;;;;;;;7.10;2.25;;;7.80;99.90;;;;;;5090765;28;20023;-26
2022/04/28 00:08:58;;;;;;;5.78;2.40;;;7.80;99.90;;;;;;5085324;28;20032;-30
2022/04/28 00:11:24;;;;;;;3.97;2.05;;;7.70;99.90;;;;;;5106826;28;20039;-28
2022/04/28 00:13:50;;;;;;;7.93;2.25;;;7.80;99.90;;;;;;5103669;28;20034;-32
2022/04/28 00:16:15;;;;;;;3.30;2.15;;;7.80;99.90;;;;;;5090757;28;20036;-30
2022/04/28 00:18:41;;;;;;;6.18;2.42;;;7.80;99.90;;;;;;5093657;28;20543;-29
2022/04/28 00:21:07;;;;;;;5.57;2.35;;;7.80;99.90;;;;;;5089647;28;20028;-28
2022/04/28 00:23:32;;;;;;;8.35;2.67;;;7.80;99.90;;;;;;5090695;28;20031;-29
2022/04/28 00:25:58;;;;;;;7.55;2.53;;;7.70;99.90;;;;;;5096982;28;20387;-43
2022/04/28 00:28:24;;;;;;;3.72;2.42;;;7.70;99.90;;;;;;5092074;28;20465;-45
2022/04/28 00:30:50;;;;;;;5.70;2.00;;;7.70;99.90;;;;;;5091143;28;20064;-38
2022/04/28 00:33:15;;;;;;;8.15;2.33;;;7.70;99.90;;;;;;5088630;28;20391;-36
2022/04/28 00:35:41;;;;;;;7.70;2.33;;;7.70;99.90;;;;;;5089423;28;20020;-31
2022/04/28 00:38:06;;;;;;;3.53;2.65;;;7.70;99.90;;;;;;5090217;28;20024;-33
2022/04/28 00:40:32;;;;;;;4.65;1.90;;;7.70;99.90;;;;;;5099819;28;20036;-30
2022/04/28 00:43:18;;;;;;;9.15;2.70;;;7.70;99.90;;;;;;5088805;28;20549;-32
2022/04/28 00:45:43;;;;;;;6.35;2.17;;;7.70;99.90;;;;;;5089949;28;20028;-29
2022/04/28 00:50:55;;;;;;;9.25;2.65;;;7.70;99.90;;;;;;5092294;28;20507;-32
2022/04/28 00:53:21;;;;;;;;;;;7.70;99.90;;;;;;5091894;28;20028;-37
2022/04/28 00:55:46;;;;;;;7.18;2.22;;;7.70;99.90;;;;;;5090944;28;19997;-30
2022/04/28 00:58:12;;;;;;;5.78;2.42;;;7.70;99.90;;;;;;5091915;28;20067;-30
2022/04/28 01:00:42;;;;;;;9.55;2.40;;;7.60;99.90;;;;;;5090212;28;20099;-30
2022/04/28 01:03:09;;;;;;;12.15;2.83;;;7.60;99.90;;;;;;5088364;28;20024;-30
2022/04/28 01:05:35;;;;;;;7.55;2.25;;;7.60;99.90;;;;;;5091013;28;20036;-32
2022/04/28 01:08:01;;;;;;;8.65;2.75;;;7.60;99.90;;;;;;5091478;28;20020;-31
2022/04/28 01:10:26;;;;;;;7.90;3.13;;;7.60;99.90;;;;;;5091141;28;20032;-28
2022/04/28 01:12:53;;;;;;;8.10;2.63;;;7.50;99.90;;;;;;5089208;28;20047;-29
2022/04/28 01:15:18;;;;;;;8.25;2.90;;;7.60;99.90;;;;;;5091263;28;20107;-30
2022/04/28 01:17:44;;;;;;;7.97;3.30;;;7.60;99.90;;;;;;5100768;28;20099;-29
2022/04/28 01:20:10;;;;;;;12.40;2.70;;;7.60;99.90;;;;;;5098483;28;20020;-32
2022/04/28 01:22:36;;;;;;;6.70;2.70;;;7.60;99.90;;;;;;5091451;28;20031;-29
2022/04/28 01:25:07;;;;;;;7.28;2.88;;;7.60;99.90;;;;;;5091760;28;20495;-29
2022/04/28 01:27:33;;;;;;;11.85;2.97;;;7.60;99.90;;;;;;5091158;28;20518;-29
2022/04/28 01:29:59;;;;;;;6.03;2.85;;;7.60;99.90;;;;;;5102113;28;20024;-30
2022/04/28 01:32:25;;;;;;;5.35;3.10;;;7.60;99.90;;;;;;5092029;28;20051;-29
2022/04/28 01:34:51;;;;;;;9.90;3.22;;;7.50;99.90;;;;;;5094812;28;20463;-30
2022/04/28 01:37:17;;;;;;;5.80;3.10;;;7.50;99.90;;;;;;5103801;28;20027;-33
2022/04/28 01:39:43;;;;;;;7.50;3.85;;;7.50;99.90;;;;;;5096068;28;20059;-32
2022/04/28 01:42:09;;;;;;;7.72;2.92;;;7.40;99.90;;;;;;5094613;28;20016;-29
2022/04/28 01:44:35;;;;;;;8.38;3.05;;;7.40;99.90;;;;;;5095592;28;20036;-31
2022/04/28 01:47:01;;;;;;;7.53;3.83;;;7.40;99.90;;;;;;5097869;28;20105;-30
2022/04/28 01:49:27;;;;;;;12.95;3.85;;;7.50;99.90;;;;;;5095898;28;20529;-30
2022/04/28 01:57:21;;;;;;;6.80;3.17;;;7.40;99.90;;;;;;5094865;28;20047;-29
2022/04/28 01:59:47;;;;;;;6.90;3.33;;;7.40;99.90;;;;;;5093421;28;20028;-32
2022/04/28 02:02:13;;;;;;;9.02;3.15;;;7.30;99.90;;;;;;5091735;28;20031;-30
2022/04/28 02:04:38;;;;;;;19.98;4.97;;;7.30;99.90;;;;;;5106535;28;20054;-39
2022/04/28 02:07:06;;;;;;;5.97;3.08;;;7.30;99.90;;;;;;5096461;28;20011;-29
2022/04/28 02:09:32;;;;;;;;;;;7.30;99.90;;;;;;5093101;28;20024;-32
2022/04/28 02:11:57;;;;;;;6.28;3.47;;;7.30;99.90;;;;;;5098132;28;19927;-31
2022/04/28 02:14:23;;;;;;;9.90;3.80;;;7.30;99.90;;;;;;5094544;28;20068;-32
2022/04/28 02:16:49;;;;;;;6.88;3.53;;;7.30;99.90;;;;;;5097055;28;20018;-54
2022/04/28 02:19:14;;;;;;;13.45;3.88;;;7.20;99.90;;;;;;5094876;28;20392;-32
2022/04/28 02:21:40;;;;;;;10.27;4.22;;;7.20;99.90;;;;;;5092934;28;20380;-28
2022/04/28 02:24:06;;;;;;;9.98;3.90;;;7.20;99.90;;;;;;5094280;28;20036;-32
2022/04/28 02:26:32;;;;;;;14.25;4.80;;;7.10;99.90;;;;;;5097734;28;20038;-29
2022/04/28 02:28:57;;;;;;;7.40;4.22;;;7.10;99.90;;;;;;5099818;28;20090;-32
2022/04/28 02:31:23;;;;;;;7.80;3.75;;;7.10;99.90;;;;;;5092847;28;20032;-30
2022/04/28 02:33:48;;;;;;;9.07;3.90;;;7.10;99.90;;;;;;5092733;28;20016;-28
2022/04/28 02:36:14;;;;;;;11.77;3.40;;;7.00;99.90;;;;;;5093100;28;20091;-32
2022/04/28 02:38:39;;;;;;;12.13;4.05;;;7.00;99.90;;;;;;5107331;28;20036;-28
2022/04/28 02:41:05;;;;;;;10.00;4.22;;;7.00;99.90;;;;;;5084633;28;20035;-29
2022/04/28 02:43:31;;;;;;;6.38;4.00;;;7.00;99.90;;;;;;5093305;28;20024;-30
2022/04/28 02:45:58;;;;;;;9.77;3.67;;;6.90;99.90;;;;;;5093886;28;20150;-32
2022/04/28 02:48:24;;;;;;;7.25;4.03;;;6.90;99.90;;;;;;5093190;28;20024;-37
2022/04/28 02:50:50;;;;;;;7.25;3.60;;;6.80;99.90;;;;;;5091966;28;20089;-38
2022/04/28 02:53:16;;;;;;;8.50;3.85;;;6.80;99.90;;;;;;5092886;28;20265;-31
2022/04/28 02:55:41;;;;;;;19.10;4.78;;;6.80;99.90;;;;;;5092989;28;20027;-29
2022/04/28 02:58:08;;;;;;;11.85;3.92;;;6.80;99.90;;;;;;5094242;28;20021;-46
2022/04/28 03:00:35;;;;;;;8.07;4.05;;;6.80;99.90;;;;;;5092735;28;20505;-36
2022/04/28 03:03:01;;;;;;;7.32;3.67;;;6.80;99.90;;;;;;5091305;28;20031;-37
2022/04/28 03:05:27;;;;;;;11.38;4.32;;;6.70;99.90;;;;;;5093414;28;20032;-35
2022/04/28 03:10:52;;;;;;;10.98;4.50;;;6.70;99.90;;;;;;5094239;28;20043;-36
2022/04/28 03:13:21;;;;;;;9.15;4.00;;;6.60;99.90;;;;;;5092650;28;20024;-36
2022/04/28 03:15:48;;;;;;;10.32;4.18;;;6.60;99.90;;;;;;5109676;28;20491;-29
2022/04/28 03:18:15;;;;;;;12.10;4.65;;;6.60;99.90;;;;;;5097019;28;20035;-30
2022/04/28 03:20:41;;;;;;;10.70;4.35;;;6.50;99.90;;;;;;5093776;28;20055;-31
2022/04/28 03:23:08;;;;;;;11.35;4.63;;;6.50;99.90;;;;;;5092601;28;20028;-30
2022/04/28 03:25:34;;;;;;;12.00;4.63;;;6.40;99.90;;;;;;5093760;28;20514;-32
2022/04/28 03:28:00;;;;;;;11.40;5.13;;;6.40;99.90;;;;;;5093311;28;20432;-30
2022/04/28 03:30:26;;;;;;;13.45;4.45;;;6.40;99.90;;;;;;5093683;28;20032;-29
2022/04/28 03:32:52;;;;;;;8.10;4.75;;;6.50;99.90;;;;;;5090858;28;20372;-29
2022/04/28 03:35:17;;;;;;;13.60;4.65;;;6.40;99.90;;;;;;5100113;28;20023;-31
2022/04/28 03:37:49;;;;;;;21.63;5.68;;;6.40;99.90;;;;;;5092333;28;20064;-37
2022/04/28 03:40:16;;;;;;;11.18;4.63;;;6.40;99.90;;;;;;5098449;28;20488;-36
2022/04/28 03:42:42;;;;;;;14.53;5.33;;;6.30;99.90;;;;;;5092610;28;20450;-37
2022/04/28 03:45:08;;;;;;;13.68;4.82;;;6.30;99.90;;;;;;5093282;28;20363;-35
2022/04/28 03:47:37;;;;;;;13.13;5.10;;;6.30;99.90;;;;;;5089815;28;20535;-35
2022/04/28 03:50:07;;;;;;;13.43;4.90;;;6.30;99.90;;;;;;5099369;28;20051;-37
2022/04/28 03:52:32;;;;;;;9.27;4.00;;;6.30;99.90;;;;;;5100730;28;20028;-44
2022/04/28 03:54:58;;;;;;;12.35;5.13;;;6.30;99.90;;;;;;5091592;28;20495;-30
2022/04/28 03:57:24;;;;;;;16.20;4.95;;;6.30;99.90;;;;;;5093269;28;20035;-31
2022/04/28 03:59:49;;;;;;;11.73;3.95;;;6.30;99.90;;;;;;5101175;28;20557;-28
2022/04/28 04:02:15;;;;;;;9.95;4.60;;;6.30;99.90;;;;;;5099838;28;20059;-30
2022/04/28 04:04:40;;;;;;;11.05;4.68;;;6.30;99.90;;;;;;5092309;28;20028;-29
2022/04/28 04:07:07;;;;;;;11.52;4.68;;;6.30;99.90;;;;;;5091750;28;20020;-31
2022/04/28 04:09:33;;;;;;;12.80;4.90;;;6.30;99.90;;;;;;5092508;28;20030;-29
2022/04/28 04:11:58;;;;;;;9.95;5.10;;;6.30;99.90;;;;;;5093229;28;20099;-37
2022/04/28 04:14:24;;;;;;;13.02;4.40;;;6.30;99.90;;;;;;5092450;28;20024;-37
2022/04/28 04:16:50;;;;;;;8.63;4.07;;;6.30;99.90;;;;;;5093440;28;20460;-36
2022/04/28 04:19:15;;;;;;;11.10;4.38;;;6.20;99.90;;;;;;5090128;28;20052;-29
2022/04/28 04:21:41;;;;;;;10.77;4.25;;;6.20;99.90;;;;;;5103283;28;21040;-29
2022/04/28 04:24:07;;;;;;;23.30;4.93;;;6.20;99.90;;;;;;5093717;28;20028;-31
2022/04/28 04:26:33;;;;;;;12.15;4.97;;;6.10;99.90;;;;;;5101509;28;20024;-33
2022/04/28 04:28:58;;;;;;;12.13;4.57;;;6.10;99.90;;;;;;5091195;28;20105;-30
2022/04/28 04:34:08;;;;;;;10.38;4.32;;;6.10;99.90;;;;;;5092207;28;20081;-38
2022/04/28 04:36:34;;;;;;;8.38;4.65;;;6.00;99.90;;;;;;5091913;28;20032;-29
2022/04/28 04:39:00;;;;;;;16.73;5.53;;;6.00;99.90;;;;;;5100603;28;20054;-60
2022/04/28 04:41:26;;;;;;;10.73;4.68;;;6.00;99.90;;;;;;5099460;28;20115;-29
2022/04/28 04:43:51;;;;;;;12.20;4.97;;;6.00;99.90;;;;;;5095529;28;20065;-30
2022/04/28 04:46:17;;;;;;;20.80;5.22;;;6.00;99.90;;;;;;5089553;28;20578;-32
2022/04/28 04:48:43;;;;;;;8.85;5.43;;;6.00;99.90;;;;;;5092540;28;20027;-31
2022/04/28 04:51:08;;;;;;;10.80;4.85;;;6.00;99.90;;;;;;5088473;28;20020;-29
2022/04/28 04:53:34;;;;;;;13.43;4.97;;;6.10;99.90;;;;;;5090315;28;20039;-29
2022/04/28 04:56:00;;;;;;;13.05;4.72;;;6.10;99.90;;;;;;5090455;28;20027;-28
2022/04/28 04:58:26;;;;;;;10.93;5.18;;;6.20;99.90;;;;;;5086875;28;20032;-47
2022/04/28 05:00:52;;;;;;;7.60;4.15;;;6.20;99.90;;;;;;5092146;28;20468;-37
2022/04/28 05:03:18;;;;;;;15.02;4.50;;;6.30;99.90;;;;;;5091190;28;20095;-36
2022/04/28 05:05:44;;;;;;;11.30;5.43;;;6.30;99.90;;;;;;5090465;28;20531;-35
2022/04/28 05:08:10;;;;;;;9.70;4.22;;;6.30;99.90;;;;;;5091981;28;20111;-37
2022/04/28 05:10:36;;;;;;;14.80;4.20;;;6.30;99.90;;;;;;5092747;28;20028;-39
2022/04/28 05:13:01;;;;;;;12.48;4.35;;;6.40;99.90;;;;;;5091931;28;20459;-37
2022/04/28 05:15:27;;;;;;;8.50;4.13;;;6.40;99.90;;;;;;5096562;28;20028;-36
2022/04/28 05:17:52;;;;;;;15.70;4.38;;;6.50;99.90;;;;;;5095767;28;20487;-37
2022/04/28 05:20:18;;;;;;;13.00;4.88;;;6.60;99.90;;;;;;5095717;28;20033;-38
2022/04/28 05:22:44;;;;;;;8.45;4.00;;;6.60;99.90;;;;;;5095031;28;20052;-36
2022/04/28 05:25:09;;;;;;;17.27;5.35;;;6.70;99.90;;;;;;5092937;28;20361;-36
2022/04/28 05:27:35;;;;;;;11.40;4.65;;;6.70;99.90;;;;;;5091309;28;20137;-35
2022/04/28 05:30:01;;;;;;;7.32;4.63;;;6.80;99.90;;;;;;5094527;28;20032;-36
2022/04/28 05:32:26;;;;;;;5.78;4.10;;;6.80;99.90;;;;;;5094085;28;20029;-38
2022/04/28 05:34:52;;;;;;;6.57;4.55;;;6.90;99.90;;;;;;5092433;28;20020;-33
2022/04/28 05:37:19;;;;;;;11.45;4.75;;;6.90;99.90;;;;;;5078068;28;20029;-36
2022/04/28 05:39:44;;;;;;;9.77;3.90;;;6.90;99.90;;;;;;5094279;28;20183;-37
2022/04/28 05:42:10;;;;;;;9.50;3.92;;;7.00;99.90;;;;;;5094945;28;20588;-32
2022/04/28 05:47:21;;;;;;;13.68;4.20;;;7.20;99.90;;;;;;5108594;28;20624;-35
2022/04/28 05:49:47;;;;;;;18.85;6.47;;;7.20;99.90;;;;;;5097139;28;20523;-35
2022/04/28 05:52:12;;;;;;;8.98;4.20;;;7.30;99.90;;;;;;5094597;28;20059;-35
2022/04/28 05:54:40;;;;;;;14.05;4.25;;;7.30;99.90;;;;;;5092883;28;20069;-35
2022/04/28 05:57:05;;;;;;;10.03;4.60;;;7.40;99.90;;;;;;5094709;28;20016;-36
2022/04/28 05:59:31;;;;;;;9.90;4.45;;;7.40;99.90;;;;;;5092657;28;20097;-38
2022/04/28 06:01:57;;;;;;;12.05;4.18;;;7.50;99.90;;;;;;5094913;28;20438;-35
2022/04/28 06:04:22;;;;;;;8.75;4.00;;;7.60;99.90;;;;;;5093697;28;20513;-37
2022/04/28 06:06:48;;;;;;;8.57;4.03;;;7.70;99.90;;;;;;5095090;28;20102;-54
2022/04/28 06:09:14;;;;;;;8.23;4.65;;;7.90;99.90;;;;;;5094637;28;20036;-36
2022/04/28 06:11:39;;;;;;;9.38;4.55;;;8.00;99.90;;;;;;5094351;28;20487;-35
2022/04/28 06:14:05;;;;;;;15.75;4.57;;;8.10;99.90;;;;;;5093537;28;20489;-37
2022/04/28 06:16:30;;;;;;;9.45;4.75;;;8.30;99.90;;;;;;5095620;28;20020;-38
2022/04/28 06:18:56;;;;;;;9.15;3.35;;;8.40;99.90;;;;;;5092843;28;20039;-31
2022/04/28 06:21:21;;;;;;;13.68;4.25;;;8.50;99.90;;;;;;5095518;28;20441;-29
2022/04/28 06:23:47;;;;;;;6.40;3.58;;;8.60;99.90;;;;;;5091116;28;20036;-33
2022/04/28 06:26:13;;;;;;;5.18;2.75;;;8.80;99.90;;;;;;5096486;28;20028;-37
2022/04/28 06:28:39;;;;;;;9.38;3.45;;;8.90;99.90;;;;;;5083444;28;20032;-37
2022/04/28 06:31:06;;;;;;;8.18;3.90;;;9.00;99.90;;;;;;5100187;28;20027;-36
2022/04/28 06:33:32;;;;;;;7.85;3.58;;;9.10;99.90;;;;;;5090656;28;20460;-37
2022/04/28 06:36:16;;;;;;;12.02;3.08;;;9.30;99.90;;;;;;5094056;28;20031;-29
2022/04/28 06:38:42;;;;;;;6.60;3.22;;;9.50;99.90;;;;;;5092879;28;20024;-29
2022/04/28 06:41:07;;;;;;;15.40;3.80;;;9.60;99.90;;;;;;5092183;28;20031;-29
2022/04/28 06:43:33;;;;;;;10.75;3.20;;;9.70;99.90;;;;;;5089436;28;20476;-33
2022/04/28 06:46:13;;;;;;;5.85;3.00;;;9.80;99.90;;;;;;5088845;28;20111;-32
2022/04/28 06:48:39;;;;;;;7.93;3.67;;;9.90;99.90;;;;;;5090060;28;20037;-29
2022/04/28 06:51:05;;;;;;;5.72;2.97;;;10.10;99.90;;;;;;5092212;28;20543;-31
2022/04/28 06:53:31;;;;;;;8.68;3.30;;;10.10;99.90;;;;;;5097621;28;20076;-38
2022/04/28 06:55:57;;;;;;;12.32;3.08;;;10.30;99.90;;;;;;5097133;28;20015;-30
2022/04/28 06:58:22;;;;;;;8.43;3.15;;;10.50;99.90;;;;;;5094086;28;20035;-37
2022/04/28 07:00:49;;;;;;;7.38;3.10;;;10.60;99.90;;;;;;5097120;28;20023;-31
2022/04/28 07:03:16;;;;;;;7.50;2.85;;;10.60;99.90;;;;;;5090748;28;20031;-33
2022/04/28 07:05:42;;;;;;;9.75;2.72;;;10.60;99.90;;;;;;5084377;28;20020;-29
2022/04/28 07:08:08;;;;;;;5.32;2.47;;;10.70;99.90;;;;;;5093475;28;20503;-29
2022/04/28 07:10:34;;;;;;;7.78;2.63;;;10.80;99.90;;;;;;5089982;28;20021;-32
2022/04/28 07:12:59;;;;;;;17.02;3.22;;;10.90;99.90;;;;;;5092072;28;20032;-34
2022/04/28 07:15:25;;;;;;;9.60;2.95;;;10.80;99.90;;;;;;5092481;28;20047;-29
2022/04/28 07:17:50;;;;;;;7.55;2.85;;;10.80;99.90;;;;;;5094425;28;20027;-30
2022/04/28 07:20:16;;;;;;;6.07;2.80;;;10.70;99.90;;;;;;5093639;28;20032;-30
2022/04/28 07:22:41;;;;;;;17.40;3.30;;;10.90;99.90;;;;;;5099708;28;20452;-30
2022/04/28 07:25:08;;;;;;;5.97;2.67;;;11.20;99.90;;;;;;5106308;28;20020;-30
2022/04/28 07:27:33;;;;;;;7.03;2.97;;;11.30;99.90;;;;;;5091967;28;20035;-30
2022/04/28 07:29:59;;;;;;;7.65;2.90;;;11.40;99.90;;;;;;5091460;28;20018;-29
2022/04/28 07:32:27;;;;;;;6.75;2.33;;;11.40;99.90;;;;;;5090467;28;20028;-38
2022/04/28 07:34:53;;;;;;;7.35;3.03;;;10.90;99.90;;;;;;5103949;28;20055;-28
2022/04/28 07:37:19;;;;;;;9.90;3.13;;;11.00;99.90;;;;;;5094077;28;20071;-31
2022/04/28 07:39:44;;;;;;;5.38;2.95;;;10.90;99.90;;;;;;5094432;28;20044;-46
2022/04/28 07:42:10;;;;;;;7.70;3.13;;;11.10;99.90;;;;;;5112715;28;20060;-33
2022/04/28 07:44:36;;;;;;;5.45;3.00;;;11.20;99.90;;;;;;5107824;28;20089;-30
2022/04/28 07:47:01;;;;;;;10.82;2.88;;;11.30;99.90;;;;;;5090101;28;20073;-42
2022/04/28 07:49:27;;;;;;;6.07;3.08;;;11.30;99.90;;;;;;5091813;28;20111;-37
2022/04/28 07:51:52;;;;;;;6.40;2.55;;;11.50;99.90;;;;;;5092826;28;20484;-36
2022/04/28 07:54:18;;;;;;;7.03;2.92;;;11.30;99.90;;;;;;5092323;28;20039;-37
2022/04/28 07:56:47;;;;;;;15.30;3.38;;;11.50;99.90;;;;;;5090845;28;20020;-36
2022/04/28 07:59:12;;;;;;;6.55;2.88;;;11.70;99.90;;;;;;5092697;28;20028;-37
2022/04/28 08:01:38;;;;;;;7.30;3.05;;;11.90;99.90;;;;;;5098335;28;20039;-37
2022/04/28 08:04:04;;;;;;;5.38;2.65;;;12.10;99.90;;;;;;5088625;28;20031;-37
2022/04/28 08:06:29;;;;;;;7.00;2.95;;;12.40;99.90;;;;;;5091680;28;20030;-37
2022/04/28 08:08:55;;;;;;;13.00;2.95;;;12.30;99.90;;;;;;5089301;28;20030;-36
2022/04/28 08:11:21;;;;;;;4.35;2.55;;;12.20;99.90;;;;;;5094299;28;20032;-39
2022/04/28 08:13:46;;;;;;;3.30;2.00;;;11.80;99.90;;;;;;5092596;28;20487;-37
2022/04/28 08:16:12;;;;;;;6.32;2.35;;;11.40;99.90;;;;;;5089840;28;20040;-36
2022/04/28 08:18:39;;;;;;;4.50;2.45;;;11.10;99.90;;;;;;5087732;28;20016;-36
2022/04/28 08:21:04;;;;;;;7.85;2.40;;;11.10;99.90;;;;;;5090146;28;20055;-38
2022/04/28 08:23:30;;;;;;;6.75;2.70;;;11.40;99.90;;;;;;5094643;28;20064;-36
2022/04/28 08:25:55;;;;;;;2.60;2.03;;;11.70;99.90;;;;;;5090993;28;20082;-36
2022/04/28 08:28:21;;;;;;;8.63;2.63;;;12.00;99.90;;;;;;5091252;28;20388;-36
2022/04/28 08:30:47;;;;;;;5.75;2.30;;;12.20;99.90;;;;;;5091180;28;20145;-35
2022/04/28 08:33:12;;;;;;;6.82;2.53;;;12.50;99.90;;;;;;5095822;28;20038;-36
2022/04/28 08:35:38;;;;;;;13.75;2.30;;;12.20;99.90;;;;;;5093074;28;20027;-36
2022/04/28 08:38:04;;;;;;;10.68;2.17;;;12.40;99.90;;;;;;5093042;28;20027;-36
2022/04/28 08:40:29;;;;;;;13.55;2.00;;;12.40;99.90;;;;;;5091890;28;20122;-32
2022/04/28 08:42:58;;;;;;;12.02;2.85;;;12.20;99.90;;;;;;5098432;28;20511;-36
2022/04/28 08:45:28;;;;;;;10.75;1.95;;;12.10;99.90;;;;;;5099154;28;20484;-36
2022/04/28 08:47:58;;;;;;;8.32;2.42;;;12.50;99.90;;;;;;5099675;28;20027;-36
2022/04/28 08:50:24;;;;;;;6.90;2.42;;;12.70;99.90;;;;;;5092712;28;20025;-36
2022/04/28 08:52:53;;;;;;;10.88;2.33;;;12.90;99.90;;;;;;5103857;28;20040;-36
2022/04/28 08:55:19;;;;;;;3.83;2.05;;;13.20;99.90;;;;;;5099126;28;20020;-37
2022/04/28 08:57:45;;;;;;;7.75;2.30;;;13.30;99.60;;;;;;5100858;28;20019;-36
2022/04/28 09:00:11;;;;;;;11.25;3.60;;;13.60;99.40;;;;;;5115127;28;20073;-36
2022/04/28 09:02:39;;;;;;;6.53;2.97;;;13.60;98.90;;;;;;5102033;28;20032;-36
2022/04/28 09:05:07;;;;;;;9.60;2.38;;;13.40;98.60;;;;;;5102442;28;20498;-38
2022/04/28 09:07:38;;;;;;;16.63;3.10;;;13.30;98.60;;;;;;5089492;28;20021;-38
2022/04/28 09:10:31;;;;;;;5.63;2.10;;;13.40;99.00;;;;;;5098047;28;20099;-39
2022/04/28 09:15:48;;;;;;;11.15;2.50;;;14.00;99.30;;;;;;5098789;28;20153;-30
2022/04/28 09:18:15;;;;;;;5.97;2.90;;;13.90;98.60;;;;;;5098201;28;20025;-38
2022/04/28 09:20:41;;;;;;;6.70;3.08;;;14.40;97.90;;;;;;5101737;28;20034;-37
2022/04/28 09:23:08;;;;;;;9.02;2.10;;;14.20;97.90;;;;;;5113217;28;20023;-37
2022/04/28 09:25:34;;;;;;;7.72;2.90;;;14.50;98.30;;;;;;5099484;28;20488;-53
2022/04/28 09:28:02;;;;;;;6.47;2.75;;;14.40;98.20;;;;;;5090995;28;20021;-43
2022/04/28 09:30:49;;;;;;;9.30;3.70;;;14.20;98.10;;;;;;5095186;28;20056;-36
2022/04/28 09:33:16;;;;;;;7.13;1.90;;;14.00;99.60;;;;;;5099663;28;20108;-48
2022/04/28 09:35:52;;;;;;;;;;;14.50;98.30;;;;;;5098291;28;20073;-36
2022/04/28 09:38:19;;;;;;;6.05;2.33;;;15.00;97.10;;;;;;5103031;28;20422;-37
2022/04/28 09:43:32;;;;;;;8.73;3.05;;;15.20;97.40;;;;;;5089704;28;20031;-35
2022/04/28 09:45:58;;;;;;;6.43;2.58;;;14.80;98.90;;;;;;5096414;28;20012;-38
2022/04/28 09:48:29;;;;;;;8.13;3.10;;;14.70;97.60;;;;;;5119947;28;20509;-37
2022/04/28 09:51:03;;;;;;;8.82;2.40;;;14.60;97.30;;;;;;5103739;27;20381;-38
2022/04/28 09:53:36;;;;;;;6.38;2.40;;;14.40;98.40;;;;;;5079658;28;20460;-37
2022/04/28 09:56:04;;;;;;;4.40;2.55;;;14.50;98.00;;;;;;5092247;28;20032;-37
2022/04/28 09:58:30;;;;;;;7.22;2.28;;;14.60;97.90;;;;;;5095896;28;20480;-35
2022/04/28 10:01:02;;;;;;;9.38;3.47;;;14.90;97.50;;;;;;5091272;28;20477;-34
2022/04/28 10:03:30;;;;;;;5.40;2.50;;;14.60;97.70;;;;;;5095989;28;20031;-31
2022/04/28 10:05:57;;;;;;;2.60;2.38;;;14.60;97.70;;;;;;5113609;28;20185;-29
2022/04/28 10:08:25;;;;;;;9.18;3.25;;;15.10;96.90;;;;;;5113102;28;20083;-32
2022/04/28 10:10:54;;;;;;;5.00;3.05;;;15.10;98.70;;;;;;5113311;28;20095;-47
2022/04/28 10:13:20;;;;;;;6.55;2.42;;;15.00;97.70;;;;;;5091205;28;20024;-36
2022/04/28 10:15:50;;;;;;;3.78;2.58;;;15.50;96.80;;;;;;5075445;28;20108;-38
2022/04/28 10:18:17;;;;;;;6.22;2.05;;;15.90;96.50;;;;;;5096725;28;20034;-38
2022/04/28 10:20:45;;;;;;;4.78;2.45;;;16.00;96.70;;;;;;5113103;28;20027;-37
2022/04/28 10:23:14;;;;;;;8.50;3.03;;;16.10;96.20;;;;;;5115184;28;20076;-34
2022/04/28 10:34:14;;;;;;;6.70;2.58;;;16.70;95.20;;;;;;5104035;28;20046;-29
2022/04/28 10:36:55;;;;;;;10.85;2.95;;;16.30;95.30;;;;;;5095319;28;20031;-30
2022/04/28 10:39:41;;;;;;;9.18;2.45;;;16.50;95.40;;;;;;5099003;28;20067;-48
2022/04/28 10:42:40;;;;;;;6.53;3.13;;;16.20;96.20;;;;;;5115833;28;20531;-38
2022/04/28 10:45:28;;;;;;;7.18;2.53;;;16.20;95.70;;;;;;5115437;28;20491;-38
2022/04/28 10:48:29;;;;;;;2.78;2.28;;;16.00;96.60;;;;;;5106131;28;20032;-36
2022/04/28 10:51:12;;;;;;;11.13;2.88;;;16.00;96.40;;;;;;5074777;28;20115;-38
2022/04/28 10:53:57;;;;;;;8.25;2.85;;;15.70;96.20;;;;;;5088047;28;20399;-36
2022/04/28 10:56:23;;;;;;;4.78;1.92;;;15.50;96.50;;;;;;5093700;28;20024;-29
2022/04/28 10:58:49;;;;;;;7.78;3.67;;;15.60;96.40;;;;;;5094798;28;20016;-29
2022/04/28 11:01:31;;;;;;;11.25;2.90;;;15.70;96.60;;;;;;5106488;28;20106;-33
2022/04/28 11:03:59;;;;;;;8.48;3.05;;;15.80;96.10;;;;;;5089011;28;20095;-30
2022/04/28 11:06:38;;;;;;;;;;;15.80;96.40;;;;;;5105543;28;20115;-33
2022/04/28 11:09:06;;;;;;;7.75;3.20;;;15.40;96.50;;;;;;5094825;28;19998;-30
2022/04/28 11:11:46;;;;;;;14.98;3.70;;;15.10;97.60;;;;;;5095318;28;20365;-37
2022/04/28 11:14:12;;;;;;;10.07;3.13;;;15.10;97.30;;;;;;5114920;28;20023;-34
2022/04/28 11:16:41;;;;;;;10.35;3.78;;;15.20;97.40;;;;;;5111769;28;20119;-41
2022/04/28 11:19:08;;;;;;;5.22;3.03;;;15.20;96.60;;;;;;5110613;28;20098;-43
2022/04/28 11:21:43;;;;;;;4.23;2.77;;;15.00;98.00;;;;;;5108983;28;20016;-29
2022/04/28 11:24:08;;;;;;;10.23;3.00;;;15.00;97.00;;;;;;5112689;28;20269;-29
2022/04/28 11:26:36;;;;;;;10.88;3.20;;;15.40;96.50;;;;;;5114631;28;20034;-28
2022/04/28 11:29:09;;;;;;;4.63;2.67;;;15.80;96.00;;;;;;5113411;28;20353;-28
2022/04/28 11:31:34;;;;;;;4.03;2.80;;;15.80;96.30;;;;;;5102865;28;20107;-28
2022/04/28 11:34:04;;;;;;;3.63;2.65;;;15.80;97.20;;;;;;5111473;28;20103;-46
2022/04/28 11:36:29;;;;;;;11.38;3.10;;;15.80;97.20;;;;;;5110941;28;20429;-37
2022/04/28 11:38:56;;;;;;;7.43;3.38;;;16.00;96.50;;;;;;5112924;28;20015;-36
2022/04/28 11:41:32;;;;;;;6.77;3.20;;;16.40;96.60;;;;;;5105531;28;20024;-36
2022/04/28 11:44:10;;;;;;;6.38;3.05;;;16.50;97.30;;;;;;5114138;28;20261;-37
2022/04/28 11:46:59;;;;;;;4.57;2.83;;;16.50;96.20;;;;;;5111582;28;20487;-28
2022/04/28 11:49:33;;;;;;;9.25;3.15;;;16.20;95.30;;;;;;5110898;28;20036;-28
2022/04/28 11:51:58;;;;;;;3.28;2.97;;;16.40;95.80;;;;;;5101123;28;20517;-30
2022/04/28 11:54:27;;;;;;;3.50;2.83;;;16.90;95.00;;;;;;5091933;28;20035;-29
2022/04/28 11:57:13;;;;;;;4.38;3.40;;;17.20;94.60;;;;;;5102502;28;20027;-29
2022/04/28 11:59:39;;;;;;;7.40;3.20;;;17.30;94.60;;;;;;5111695;27;20027;-29
2022/04/28 12:02:26;;;;;;;6.47;2.57;;;17.00;95.70;;;;;;5107299;28;20482;-30
2022/04/28 12:04:52;;;;;;;10.95;3.00;;;16.90;95.60;;;;;;5101549;28;20488;-28
2022/04/28 12:07:19;;;;;;;6.22;3.25;;;16.80;96.10;;;;;;5107523;28;20023;-35
2022/04/28 12:15:13;;;;;;;8.40;3.95;;;17.30;95.00;;;;;;5084435;28;20091;-38
2022/04/28 12:21:00;;;;;;;5.63;3.47;;;17.50;95.50;;;;;;5113910;28;20043;-35
2022/04/28 12:23:33;;;;;;;11.70;4.43;;;17.20;95.90;;;;;;5111362;28;20480;-37
2022/04/28 12:26:01;;;;;;;9.80;3.30;;;17.30;95.10;;;;;;5113976;28;20506;-35
2022/04/28 12:28:30;;;;;;;;;;;17.20;95.20;;;;;;5114023;28;20035;-37
2022/04/28 12:30:56;;;;;;;7.63;3.40;;;17.30;95.50;;;;;;5093874;28;19912;-38
2022/04/28 12:33:21;;;;;;;7.22;3.55;;;17.40;96.40;;;;;;5099130;28;20039;-37
2022/04/28 12:35:47;;;;;;;6.40;3.78;;;17.40;95.40;;;;;;5094016;28;20064;-35
2022/04/28 12:38:23;;;;;;;6.45;3.78;;;17.30;95.60;;;;;;5090515;28;20031;-37
2022/04/28 12:40:48;;;;;;;7.90;4.00;;;17.20;96.70;;;;;;5071476;28;20544;-35
2022/04/28 12:43:35;;;;;;;5.85;3.65;;;17.00;95.80;;;;;;5077554;28;20165;-37
2022/04/28 12:46:00;;;;;;;7.65;3.47;;;16.90;95.60;;;;;;5091704;28;20020;-35
2022/04/28 12:48:29;;;;;;;9.68;4.13;;;16.60;96.10;;;;;;5092978;28;20038;-36
2022/04/28 12:51:14;;;;;;;7.43;4.75;;;16.80;95.80;;;;;;5093269;28;20509;-35
2022/04/28 12:53:41;;;;;;;12.43;4.10;;;17.00;95.80;;;;;;5092193;28;20859;-37
2022/04/28 12:56:10;;;;;;;4.43;3.72;;;16.90;96.90;;;;;;5092930;28;20070;-37
2022/04/28 12:58:41;;;;;;;7.28;4.00;;;17.00;95.90;;;;;;5102328;28;20042;-37
2022/04/28 13:01:19;;;;;;;7.95;3.63;;;17.40;95.80;;;;;;5113283;28;20110;-35
2022/04/28 13:04:06;;;;;;;5.70;3.78;;;17.60;95.00;;;;;;5111722;28;20483;-36
2022/04/28 13:06:35;;;;;;;9.27;4.17;;;17.10;95.80;;;;;;5091410;28;20036;-36
2022/04/28 13:09:02;;;;;;;9.95;4.20;;;16.90;95.60;;;;;;5107187;28;20422;-36
2022/04/28 13:11:30;;;;;;;12.05;4.20;;;17.00;95.90;;;;;;5113210;28;20018;-37
2022/04/28 13:13:57;;;;;;;8.52;3.90;;;17.10;95.50;;;;;;5111533;28;20503;-37
2022/04/28 13:16:24;;;;;;;9.77;3.72;;;17.30;95.70;;;;;;5110674;28;20368;-36
2022/04/28 13:18:50;;;;;;;8.57;4.65;;;17.10;96.10;;;;;;5105437;28;20028;-37
2022/04/28 13:21:16;;;;;;;7.85;4.45;;;17.10;95.90;;;;;;5092708;28;20024;-35
2022/04/28 13:23:43;;;;;;;6.75;3.95;;;17.30;95.90;;;;;;5092248;28;20025;-37
2022/04/28 13:26:11;;;;;;;13.70;4.18;;;17.50;94.90;;;;;;5106521;28;20055;-36
2022/04/28 13:28:37;;;;;;;;;;;17.40;95.60;;;;;;5104938;28;20055;-37
2022/04/28 13:31:04;;;;;;;6.80;4.20;;;17.20;95.50;;;;;;5107984;28;20343;-38
2022/04/28 13:33:31;;;;;;;8.32;3.45;;;17.00;95.60;;;;;;5117051;28;20041;-37